Terminal Aerodrome Forecast
Issued by NWS

Home | Current Version | Previous Version | Text Only | Print | Product List | Glossary On
Versions: 1 2 3 4 5 6 7 8 9 10 11 12 13 14 15 16 17 18 19 20 21 22 23 24 25 26 27 28 29 30 31 32 33 34 35 36 37 38 39 40 41 42
000
FTUS45 KSLC 211122
TAF36U
TAF
K36U 211122Z 2112/2212 VRB05KT 1SM -SN BR BKN007 BKN015
     FM211400 30008KT 1SM -SN BKN003 BKN007
     FM212100 30008KT P6SM VCSH SCT020 BKN040
     FM220300 VRB04KT P6SM SCT030 BKN060=

USA.gov is the U.S. government's official web portal to all federal, state and local government web resources and services.